Brandon Municipal Airport
CYBR : now visible

Airfield :











YOU CAN JOIN US ON...

 
LOGIN :

Register | Disclaimer

   EN    FR    IT 

 









Legend :    VFR   Marginal VFR   IFR   Intensive IFR   Very Intensive IFR
Visi :
Ceiling :
>= 8 km
>= 3000ft
5 to 8 km
1000 to 3000 ft
1500m to 5 km
500 to 1000 ft
800 to 1500m
200 to 500 ft
< 800m
< 200 ft
Symbols :   Thunderstorms  Fog  Heavy snow  Heavy precipitations  Wind > 20 kt







- Airport Elevation : 1343 ft
- IATA code : YBR


CYBR - Brandon Municipal

CURRENT METAR :
  • 260300Z 29007KT 15SM FEW094 BKN160 17/17 A2966 RMK AC2AC3 SLP050 DENSITY ALT 2200FT

EXPIRED METARs :
  • 260220Z 16005KT 080V170 15SM SCT094 BKN140 18/17 A2965 RMK AC4AC3 SLP043 DENSITY ALT 2400FT
  • 260200Z 13003KT 15SM -SHRA BKN094 BKN140 19/17 A2964 RMK AC6AC1 CVCTV CLD EMBD SLP042 DENSITY ALT 2400FT
  • 260109Z 20005KT 15SM -SHRA BKN095 BKN140 19/17 A2967 RMK AC5AC2 CVCTV CLD EMBD SLP052 DENSITY ALT 2400FT
  • 260100Z 17005KT 15SM BKN094 BKN160 19/17 A2966 RMK AC5AC2 SLP050 DENSITY ALT 2500FT

TAF TAF CYBR
Valid from the 26 at 00:00 until the 26 at 12:00 UTC


252338Z 2600/2612 22008KT P6SM FEW020 BKN140 BKN250
TEMPO 2600/2604 VRB15G25KT 2SM TSRA BR SCT008 BKN020CB BKN140
FM260400 28012G22KT P6SM FEW008 BKN040
TEMPO 2604/2612 BKN008 OVC040 RMK NXT FCST BY 260600Z
No reported NOTAMs for that airfield.



MET'MAP, your aeronautical weather chart ! - Copyright ORBIFLY December 2007 - Disclaimer

ORBIFLY MET'MAP TEAM :

Programming & Development : Alexandra Zaïnal
Concept & Development : Baudouin d'Aumeries
Co-Development & Prog : Marc-Olivier Méhu
Technical & hardware support : Manuel Goepfert

Contact : metmap@orbifly.com




SOURCES & CREDITS :

   NOAA       Earth
Advisory